Terminal Aerodrome Forecast
Issued by NWS

Home | Current Version | Previous Version | Text Only | Print | Product List | Glossary On
Versions: 1 2 3 4 5 6 7 8 9 10 11 12 13 14 15 16 17 18 19 20 21 22 23 24 25 26
000
FTUS41 KRNK 230531
TAFBCB
TAF
KBCB 230531Z 2306/2406 00000KT P6SM SCT250
     FM231500 15005KT P6SM SCT035 OVC100
     FM232000 12008KT P6SM -RA OVC020
     FM232200 12010KT 4SM RA BR OVC015
      TEMPO 2400/2404 1SM RA BR OVC007=

USA.gov is the U.S. government's official web portal to all federal, state and local government web resources and services.